createdAt,value
2023-01-10T00:01:46.846Z,99.90
2023-01-10T00:03:50.381Z,99.50
2023-01-10T00:05:59.231Z,99.90
2023-01-10T00:08:03.713Z,99.90
2023-01-10T00:10:07.353Z,99.90
2023-01-10T00:12:27.784Z,99.90
2023-01-10T00:14:33.693Z,99.90
2023-01-10T00:16:39.447Z,99.90
2023-01-10T00:18:42.638Z,99.90
2023-01-10T00:20:46.845Z,99.90
2023-01-10T00:22:51.840Z,99.90
2023-01-10T00:24:55.674Z,99.90
2023-01-10T00:26:59.508Z,99.40
2023-01-10T00:29:02.919Z,99.70
2023-01-10T00:31:08.350Z,99.90
2023-01-10T00:33:17.364Z,99.90
2023-01-10T00:35:21.132Z,98.90
2023-01-10T00:37:24.516Z,97.70
2023-01-10T00:39:29.346Z,98.40
2023-01-10T00:41:50.077Z,98.40
2023-01-10T00:43:59.199Z,98.30
2023-01-10T00:46:02.875Z,98.10
2023-01-10T00:48:06.468Z,97.10
2023-01-10T00:50:10.647Z,97.10
2023-01-10T00:52:14.175Z,96.90
2023-01-10T00:54:17.669Z,96.30
2023-01-10T00:56:22.304Z,96.70
2023-01-10T00:58:25.691Z,96.00
2023-01-10T01:00:29.025Z,95.90
2023-01-10T01:02:32.180Z,96.00
2023-01-10T01:04:35.681Z,95.70
2023-01-10T01:06:39.025Z,95.70
2023-01-10T01:08:42.230Z,95.80
2023-01-10T01:10:45.970Z,95.20
2023-01-10T01:12:54.520Z,95.00
2023-01-10T01:14:58.467Z,94.80
2023-01-10T01:17:01.714Z,94.80
2023-01-10T01:19:05.130Z,94.00
2023-01-10T01:21:08.726Z,94.20
2023-01-10T01:23:12.275Z,94.30
2023-01-10T01:25:15.664Z,94.70
2023-01-10T01:27:19.114Z,95.30
2023-01-10T01:29:29.991Z,94.50
2023-01-10T01:31:38.434Z,94.60
2023-01-10T01:33:41.799Z,93.30
2023-01-10T01:35:45.611Z,93.30
2023-01-10T01:37:48.958Z,93.70
2023-01-10T01:39:52.383Z,93.90
2023-01-10T01:41:58.545Z,93.40
2023-01-10T01:44:05.397Z,93.00
2023-01-10T01:46:10.249Z,92.30
2023-01-10T01:48:30.841Z,92.70
2023-01-10T01:50:38.305Z,92.60
2023-01-10T01:52:41.683Z,92.90
2023-01-10T01:54:45.221Z,91.80
2023-01-10T01:56:52.763Z,93.00
2023-01-10T01:59:00.495Z,91.80
2023-01-10T02:01:04.277Z,92.30
2023-01-10T02:03:09.783Z,92.10
2023-01-10T02:05:16.369Z,92.10
2023-01-10T02:07:20.103Z,91.90
2023-01-10T02:09:29.532Z,91.50
2023-01-10T02:11:33.123Z,91.90
2023-01-10T02:13:41.181Z,91.90
2023-01-10T02:15:44.445Z,91.20
2023-01-10T02:17:50.061Z,91.00
2023-01-10T02:19:58.818Z,90.70
2023-01-10T02:22:38.458Z,90.00
2023-01-10T02:25:09.206Z,90.60
2023-01-10T02:27:27.524Z,89.90
2023-01-10T02:30:10.840Z,90.40
2023-01-10T02:32:40.719Z,90.50
2023-01-10T02:35:01.650Z,90.10
2023-01-10T02:37:14.376Z,90.00
2023-01-10T02:39:22.902Z,88.90
2023-01-10T02:41:36.816Z,89.60
2023-01-10T02:43:46.777Z,87.30
2023-01-10T02:45:54.131Z,89.20
2023-01-10T02:47:59.267Z,88.10
2023-01-10T02:50:29.193Z,87.80
2023-01-10T02:52:33.024Z,88.50
2023-01-10T02:54:36.457Z,86.10
2023-01-10T02:57:13.851Z,87.70
2023-01-10T03:00:08.055Z,87.60
2023-01-10T03:02:24.995Z,86.90
2023-01-10T03:04:39.247Z,86.20
2023-01-10T03:06:49.019Z,87.40
2023-01-10T03:08:58.385Z,86.40
2023-01-10T03:11:04.016Z,86.10
2023-01-10T03:13:12.978Z,87.30
2023-01-10T03:15:19.943Z,83.80
2023-01-10T03:17:25.967Z,85.70
2023-01-10T03:19:34.100Z,84.70
2023-01-10T03:21:39.900Z,84.40
2023-01-10T03:23:43.952Z,84.60
2023-01-10T03:25:49.355Z,85.00
2023-01-10T03:27:57.193Z,84.70
2023-01-10T03:30:07.754Z,84.20
2023-01-10T03:32:15.662Z,84.70
2023-01-10T03:34:19.016Z,84.70
2023-01-10T03:36:32.128Z,84.50
2023-01-10T03:38:42.912Z,82.80
2023-01-10T03:40:57.774Z,83.90
2023-01-10T03:43:22.338Z,83.30
2023-01-10T03:45:31.114Z,84.40
2023-01-10T03:47:39.235Z,83.30
2023-01-10T03:49:48.033Z,82.10
2023-01-10T03:51:54.037Z,82.40
2023-01-10T03:54:00.808Z,82.70
2023-01-10T03:56:04.087Z,82.20
2023-01-10T03:58:07.715Z,83.10
2023-01-10T04:00:16.179Z,83.30
2023-01-10T04:02:19.415Z,82.80
2023-01-10T04:04:23.006Z,83.20
2023-01-10T04:06:26.211Z,83.00
2023-01-10T04:08:30.839Z,82.80
2023-01-10T04:10:34.262Z,82.80
2023-01-10T04:12:37.551Z,84.10
2023-01-10T04:14:40.901Z,83.00
2023-01-10T04:16:44.061Z,82.30
2023-01-10T04:18:47.393Z,83.00
2023-01-10T04:20:52.200Z,81.90
2023-01-10T04:22:55.782Z,82.40
2023-01-10T04:25:00.444Z,82.70
2023-01-10T04:27:03.735Z,81.10
2023-01-10T04:29:07.224Z,80.10
2023-01-10T04:31:10.450Z,82.30
2023-01-10T04:33:13.778Z,81.30
2023-01-10T04:35:17.229Z,81.60
2023-01-10T04:37:24.071Z,80.90
2023-01-10T04:39:27.457Z,81.30
2023-01-10T04:41:32.101Z,80.30
2023-01-10T04:43:35.353Z,80.20
2023-01-10T04:45:38.609Z,79.90
2023-01-10T04:47:41.830Z,78.70
2023-01-10T04:49:45.039Z,78.70
2023-01-10T04:51:48.278Z,78.40
2023-01-10T04:53:51.469Z,78.40
2023-01-10T04:55:54.661Z,77.50
2023-01-10T04:57:59.425Z,78.50
2023-01-10T05:00:02.694Z,78.00
2023-01-10T05:02:06.166Z,78.10
2023-01-10T05:04:09.583Z,78.30
2023-01-10T05:06:12.823Z,77.80
2023-01-10T05:08:16.215Z,77.30
2023-01-10T05:10:19.723Z,77.30
2023-01-10T05:12:22.932Z,78.30
2023-01-10T05:14:27.541Z,78.70
2023-01-10T05:16:30.988Z,79.60
2023-01-10T05:18:34.946Z,79.30
2023-01-10T05:20:41.502Z,78.00
2023-01-10T05:22:44.914Z,78.00
2023-01-10T05:24:48.164Z,77.50
2023-01-10T05:26:51.448Z,79.10
2023-01-10T05:28:54.666Z,79.40
2023-01-10T05:30:59.281Z,79.10
2023-01-10T05:33:04.760Z,78.70
2023-01-10T05:35:08.708Z,79.90
2023-01-10T05:37:12.033Z,79.60
2023-01-10T05:39:15.272Z,80.00
2023-01-10T05:41:18.500Z,79.40
2023-01-10T05:43:21.743Z,79.00
2023-01-10T05:45:25.093Z,79.00
2023-01-10T05:47:29.833Z,79.40
2023-01-10T05:49:34.258Z,79.00
2023-01-10T05:51:37.542Z,79.40
2023-01-10T05:53:40.699Z,79.00
2023-01-10T05:55:43.998Z,78.70
2023-01-10T05:57:47.815Z,79.50
2023-01-10T05:59:51.134Z,78.40
2023-01-10T06:01:54.444Z,79.30
2023-01-10T06:03:59.041Z,79.40
2023-01-10T06:06:03.345Z,78.90
2023-01-10T06:08:06.910Z,78.80
2023-01-10T06:10:11.512Z,79.80
2023-01-10T06:12:14.715Z,78.40
2023-01-10T06:14:19.534Z,78.60
2023-01-10T06:16:26.525Z,79.00
2023-01-10T06:18:29.745Z,78.80
2023-01-10T06:20:34.470Z,78.80
2023-01-10T06:22:37.716Z,79.20
2023-01-10T06:24:42.424Z,79.70
2023-01-10T06:26:45.815Z,79.00
2023-01-10T06:28:49.138Z,79.10
2023-01-10T06:30:52.402Z,79.60
2023-01-10T06:32:55.882Z,78.50
2023-01-10T06:34:59.154Z,79.60
2023-01-10T06:37:03.932Z,79.40
2023-01-10T06:39:07.248Z,79.20
2023-01-10T06:41:14.028Z,79.60
2023-01-10T06:43:17.457Z,80.50
2023-01-10T06:45:20.971Z,80.00
2023-01-10T06:47:24.260Z,79.90
2023-01-10T06:49:27.560Z,78.90
2023-01-10T06:51:30.776Z,80.30
2023-01-10T06:53:35.566Z,81.10
2023-01-10T06:55:38.757Z,80.10
2023-01-10T06:57:42.228Z,80.90
2023-01-10T06:59:45.599Z,80.20
2023-01-10T07:01:48.881Z,81.90
2023-01-10T07:03:52.273Z,81.60
2023-01-10T07:05:55.695Z,82.00
2023-01-10T07:08:01.307Z,82.60
2023-01-10T07:10:07.052Z,81.50
2023-01-10T07:12:10.348Z,83.00
2023-01-10T07:14:13.461Z,80.40
2023-01-10T07:16:17.633Z,80.40
2023-01-10T07:18:20.894Z,81.20
2023-01-10T07:20:23.998Z,81.50
2023-01-10T07:22:27.362Z,82.10
2023-01-10T07:24:30.677Z,82.80
2023-01-10T07:26:35.195Z,81.10
2023-01-10T07:28:38.701Z,81.00
2023-01-10T07:30:41.945Z,80.50
2023-01-10T07:32:45.047Z,81.00
2023-01-10T07:34:48.204Z,81.90
2023-01-10T07:36:51.464Z,81.30
2023-01-10T07:38:54.706Z,81.30
2023-01-10T07:40:58.176Z,81.80
2023-01-10T07:43:03.975Z,81.90
2023-01-10T07:45:08.841Z,80.80
2023-01-10T07:47:11.916Z,81.40
2023-01-10T07:49:15.716Z,81.30
2023-01-10T07:51:18.926Z,81.30
2023-01-10T07:53:22.159Z,81.00
2023-01-10T07:55:25.990Z,80.50
2023-01-10T07:57:29.240Z,80.20
2023-01-10T07:59:34.394Z,81.70
2023-01-10T08:01:41.055Z,80.70
2023-01-10T08:03:44.309Z,80.10
2023-01-10T08:05:47.635Z,81.30
2023-01-10T08:07:50.872Z,81.50
2023-01-10T08:09:54.449Z,80.60
2023-01-10T08:11:57.787Z,81.30
2023-01-10T08:14:00.946Z,80.70
2023-01-10T08:16:08.596Z,79.80
2023-01-10T08:18:11.817Z,80.40
2023-01-10T08:20:15.374Z,80.50
2023-01-10T08:22:18.577Z,80.50
2023-01-10T08:24:21.675Z,80.50
2023-01-10T08:26:24.943Z,80.80
2023-01-10T08:28:28.415Z,82.00
2023-01-10T08:30:31.554Z,80.90
2023-01-10T08:32:36.196Z,81.60
2023-01-10T08:34:39.469Z,81.80
2023-01-10T08:36:46.841Z,79.90
2023-01-10T08:38:51.055Z,80.30
2023-01-10T08:40:57.124Z,82.10
2023-01-10T08:43:01.195Z,81.30
2023-01-10T08:45:04.690Z,81.00
2023-01-10T08:47:08.213Z,80.10
2023-01-10T08:49:13.034Z,79.00
2023-01-10T08:51:16.342Z,80.30
2023-01-10T08:53:19.515Z,79.00
2023-01-10T08:55:26.314Z,78.20
2023-01-10T08:57:29.572Z,77.70
2023-01-10T08:59:32.876Z,76.80
2023-01-10T09:01:36.455Z,78.40
2023-01-10T09:03:40.423Z,74.40
2023-01-10T09:05:45.148Z,74.30
2023-01-10T09:07:48.575Z,73.80
2023-01-10T09:09:51.734Z,73.80
2023-01-10T09:11:54.984Z,73.20
2023-01-10T09:13:58.162Z,74.60
2023-01-10T09:16:01.912Z,74.80
2023-01-10T09:18:07.441Z,74.80
2023-01-10T09:20:12.273Z,74.50
2023-01-10T09:22:16.853Z,75.60
2023-01-10T09:24:20.598Z,75.00
2023-01-10T09:26:24.218Z,74.00
2023-01-10T09:28:27.519Z,75.90
2023-01-10T09:30:32.133Z,77.20
2023-01-10T09:32:35.469Z,76.20
2023-01-10T09:34:38.567Z,76.80
2023-01-10T09:36:41.663Z,77.40
2023-01-10T09:38:46.645Z,76.60
2023-01-10T09:41:20.084Z,76.90
2023-01-10T09:43:31.563Z,75.10
2023-01-10T09:45:43.354Z,74.60
2023-01-10T09:47:54.334Z,74.90
2023-01-10T09:50:11.390Z,74.00
2023-01-10T09:52:23.205Z,74.50
2023-01-10T09:54:31.065Z,74.20
2023-01-10T09:56:36.349Z,73.90
2023-01-10T09:58:39.966Z,75.00
2023-01-10T10:00:46.395Z,75.60
2023-01-10T10:02:53.714Z,74.20
2023-01-10T10:05:10.897Z,73.10
2023-01-10T10:07:17.772Z,74.30
2023-01-10T10:09:27.959Z,73.80
2023-01-10T10:11:58.301Z,72.50
2023-01-10T10:14:08.569Z,71.80
2023-01-10T10:16:24.820Z,72.50
2023-01-10T10:18:40.192Z,74.00
2023-01-10T10:20:54.271Z,71.00
2023-01-10T10:23:10.022Z,70.90
2023-01-10T10:25:27.226Z,72.30
2023-01-10T10:27:41.092Z,70.80
2023-01-10T10:30:25.870Z,68.10
2023-01-10T10:32:47.541Z,68.30
2023-01-10T10:34:54.685Z,70.20
2023-01-10T10:37:02.414Z,65.30
2023-01-10T10:39:07.655Z,65.20
2023-01-10T10:41:18.020Z,67.80
2023-01-10T10:43:28.079Z,68.60
2023-01-10T10:45:39.600Z,70.50
2023-01-10T10:47:50.200Z,69.90
2023-01-10T10:50:00.876Z,71.60
2023-01-10T10:52:10.301Z,72.50
2023-01-10T10:54:16.911Z,68.10
2023-01-10T10:56:28.776Z,67.60
2023-01-10T10:58:35.651Z,65.70
2023-01-10T11:00:42.352Z,66.80
2023-01-10T11:02:51.898Z,64.90
2023-01-10T11:05:01.437Z,67.70
2023-01-10T11:07:06.520Z,64.90
2023-01-10T11:09:12.996Z,64.30
2023-01-10T11:11:22.835Z,66.10
2023-01-10T11:13:42.006Z,65.30
2023-01-10T11:15:48.869Z,66.40
2023-01-10T11:18:07.119Z,64.20
2023-01-10T11:20:20.431Z,62.90
2023-01-10T11:22:25.488Z,63.30
2023-01-10T11:24:33.166Z,63.60
2023-01-10T11:26:40.560Z,64.50
2023-01-10T11:28:46.011Z,61.30
2023-01-10T11:30:51.677Z,61.80
2023-01-10T11:32:56.906Z,60.70
2023-01-10T11:35:06.343Z,60.00
2023-01-10T11:37:29.256Z,60.50
2023-01-10T11:39:33.853Z,62.10
2023-01-10T11:41:40.715Z,59.90
2023-01-10T11:43:45.432Z,59.40
2023-01-10T11:45:56.311Z,62.50
2023-01-10T11:48:07.109Z,60.80
2023-01-10T11:50:11.559Z,64.00
2023-01-10T11:52:19.244Z,63.00
2023-01-10T11:54:25.313Z,63.30
2023-01-10T11:56:32.473Z,60.90
2023-01-10T11:58:38.329Z,62.30
2023-01-10T12:00:45.645Z,61.30
2023-01-10T12:02:50.313Z,65.10
2023-01-10T12:04:56.533Z,62.20
2023-01-10T12:07:04.432Z,61.80
2023-01-10T12:09:30.143Z,63.80
2023-01-10T12:11:35.929Z,64.70
2023-01-10T12:13:48.252Z,64.30
2023-01-10T12:15:52.871Z,62.00
2023-01-10T12:17:58.743Z,63.30
2023-01-10T12:20:04.771Z,63.30
2023-01-10T12:22:10.975Z,63.60
2023-01-10T12:24:18.047Z,64.90
2023-01-10T12:26:21.968Z,62.80
2023-01-10T12:28:30.133Z,66.20
2023-01-10T12:30:37.541Z,68.10
2023-01-10T12:32:45.890Z,66.90
2023-01-10T12:34:55.497Z,66.10
2023-01-10T12:37:07.155Z,65.20
2023-01-10T12:39:17.566Z,64.10
2023-01-10T12:41:44.198Z,64.20
2023-01-10T12:44:03.840Z,63.50
2023-01-10T12:46:33.550Z,66.10
2023-01-10T12:48:50.276Z,64.50
2023-01-10T12:51:00.750Z,64.50
2023-01-10T12:53:11.347Z,61.60
2023-01-10T12:55:16.706Z,60.80
2023-01-10T12:57:28.043Z,58.40
2023-01-10T12:59:38.060Z,59.90
2023-01-10T13:01:44.283Z,59.00
2023-01-10T13:03:55.627Z,57.60
2023-01-10T13:06:00.193Z,57.50
2023-01-10T13:08:07.060Z,57.60
2023-01-10T13:10:17.510Z,56.30
2023-01-10T13:12:25.325Z,54.80
2023-01-10T13:16:46.588Z,52.50
2023-01-10T13:19:06.927Z,52.00
2023-01-10T13:21:13.669Z,51.70
2023-01-10T13:23:31.216Z,51.80
2023-01-10T13:25:38.015Z,52.90
2023-01-10T13:27:41.388Z,53.50
2023-01-10T13:29:47.034Z,54.50
2023-01-10T13:31:57.320Z,53.90
2023-01-10T13:34:06.040Z,53.10
2023-01-10T13:36:13.785Z,52.50
2023-01-10T13:38:21.080Z,52.00
2023-01-10T13:40:28.247Z,51.40
2023-01-10T13:42:50.674Z,53.40
2023-01-10T13:45:16.366Z,54.00
2023-01-10T13:47:59.576Z,53.30
2023-01-10T13:50:49.748Z,53.70
2023-01-10T13:52:53.647Z,55.50
2023-01-10T13:54:58.268Z,57.20
2023-01-10T13:57:01.639Z,58.30
2023-01-10T13:59:20.814Z,58.10
2023-01-10T14:01:44.456Z,60.40
2023-01-10T14:03:52.266Z,62.00
2023-01-10T14:05:57.018Z,61.90
2023-01-10T14:08:00.841Z,62.40
2023-01-10T14:10:07.141Z,63.70
2023-01-10T14:12:27.108Z,65.20
2023-01-10T14:14:32.926Z,65.10
2023-01-10T14:16:38.382Z,66.30
2023-01-10T14:18:42.945Z,67.00
2023-01-10T14:20:57.110Z,67.60
2023-01-10T14:23:05.683Z,68.00
2023-01-10T14:25:20.329Z,70.00
2023-01-10T14:27:24.870Z,69.80
2023-01-10T14:29:36.765Z,70.60
2023-01-10T14:31:44.713Z,75.90
2023-01-10T14:33:49.641Z,72.20
2023-01-10T14:35:55.898Z,71.90
2023-01-10T14:38:02.648Z,74.00
2023-01-10T14:40:26.972Z,74.10
2023-01-10T14:42:31.111Z,75.20
2023-01-10T14:44:43.204Z,75.20
2023-01-10T14:46:48.712Z,75.40
2023-01-10T14:48:53.609Z,76.40
2023-01-10T14:51:18.370Z,76.60
2023-01-10T14:53:28.625Z,77.40
2023-01-10T14:55:33.218Z,77.00
2023-01-10T14:57:36.490Z,77.80
2023-01-10T14:59:40.046Z,78.10
2023-01-10T15:01:43.412Z,79.60
2023-01-10T15:03:51.746Z,78.80
2023-01-10T15:05:58.826Z,78.80
2023-01-10T15:08:22.064Z,78.60
2023-01-10T15:10:28.703Z,78.50
2023-01-10T15:12:35.981Z,79.20
2023-01-10T15:14:39.515Z,79.80
2023-01-10T15:16:43.526Z,80.10
2023-01-10T15:18:48.341Z,78.70
2023-01-10T15:20:52.440Z,79.60
2023-01-10T15:22:58.484Z,80.10
2023-01-10T15:25:03.851Z,79.00
2023-01-10T15:27:12.878Z,78.90
2023-01-10T15:29:23.538Z,78.60
2023-01-10T15:31:26.993Z,78.50
2023-01-10T15:33:37.500Z,78.60
2023-01-10T15:35:43.549Z,79.70
2023-01-10T15:37:51.576Z,77.60
2023-01-10T15:39:55.928Z,78.50
2023-01-10T15:42:02.792Z,79.30
2023-01-10T15:44:26.018Z,79.90
2023-01-10T15:46:34.349Z,80.50
2023-01-10T15:48:40.475Z,80.60
2023-01-10T15:50:59.708Z,81.20
2023-01-10T15:53:08.625Z,81.20
2023-01-10T15:55:38.869Z,81.30
2023-01-10T15:57:42.147Z,81.20
2023-01-10T15:59:51.448Z,81.00
2023-01-10T16:01:55.802Z,81.30
2023-01-10T16:04:02.433Z,81.70
2023-01-10T16:06:09.976Z,82.10
2023-01-10T16:08:13.717Z,82.30
2023-01-10T16:10:21.506Z,82.40
2023-01-10T16:12:51.723Z,82.00
2023-01-10T16:14:57.936Z,82.90
2023-01-10T16:17:01.898Z,83.10
2023-01-10T16:19:05.334Z,83.30
2023-01-10T16:21:11.352Z,82.30
2023-01-10T16:23:18.480Z,81.80
2023-01-10T16:25:27.902Z,80.90
2023-01-10T16:27:31.216Z,80.90
2023-01-10T16:29:34.540Z,80.40
2023-01-10T16:31:39.428Z,80.30
2023-01-10T16:33:42.622Z,80.30
2023-01-10T16:35:46.639Z,80.30
2023-01-10T16:37:50.536Z,80.20
2023-01-10T16:39:53.873Z,79.20
2023-01-10T16:42:14.751Z,79.40
2023-01-10T16:44:19.250Z,79.30
2023-01-10T16:46:23.224Z,78.30
2023-01-10T16:48:31.714Z,78.90
2023-01-10T16:50:35.148Z,79.50
2023-01-10T16:52:38.558Z,80.00
2023-01-10T16:54:41.888Z,80.20
2023-01-10T16:56:45.443Z,79.90
2023-01-10T16:58:49.290Z,80.00
2023-01-10T17:00:53.597Z,79.60
2023-01-10T17:02:57.711Z,80.00
2023-01-10T17:05:02.474Z,79.70
2023-01-10T17:07:05.713Z,80.00
2023-01-10T17:09:09.441Z,79.80
2023-01-10T17:11:17.623Z,77.90
2023-01-10T17:13:27.172Z,77.70
2023-01-10T17:15:30.510Z,77.90
2023-01-10T17:17:33.732Z,79.00
2023-01-10T17:19:37.263Z,78.70
2023-01-10T17:21:46.184Z,78.60
2023-01-10T17:23:50.091Z,78.70
2023-01-10T17:26:00.349Z,77.60
2023-01-10T17:28:03.620Z,76.30
2023-01-10T17:30:07.710Z,75.40
2023-01-10T17:32:11.728Z,74.90
2023-01-10T17:34:15.031Z,75.30
2023-01-10T17:36:19.607Z,75.50
2023-01-10T17:38:26.693Z,76.20
2023-01-10T17:40:30.136Z,75.00
2023-01-10T17:42:33.693Z,76.20
2023-01-10T17:44:37.119Z,74.80
2023-01-10T17:46:41.151Z,74.20
2023-01-10T17:48:44.498Z,74.40
2023-01-10T17:50:49.409Z,76.30
2023-01-10T17:52:52.643Z,77.20
2023-01-10T17:54:59.448Z,78.10
2023-01-10T17:57:03.166Z,77.80
2023-01-10T17:59:06.506Z,81.00
2023-01-10T18:01:21.206Z,81.40
2023-01-10T18:03:25.678Z,81.20
2023-01-10T18:05:29.023Z,79.80
2023-01-10T18:07:32.363Z,79.00
2023-01-10T18:09:35.726Z,77.80
2023-01-10T18:11:40.545Z,77.40
2023-01-10T18:13:43.819Z,75.10
2023-01-10T18:15:49.170Z,74.70
2023-01-10T18:17:52.910Z,76.00
2023-01-10T18:19:57.507Z,76.30
2023-01-10T18:22:00.869Z,76.70
2023-01-10T18:24:04.146Z,77.50
2023-01-10T18:26:09.495Z,77.70
2023-01-10T18:28:14.270Z,76.80
2023-01-10T18:30:21.885Z,75.80
2023-01-10T18:32:25.585Z,75.30
2023-01-10T18:34:28.976Z,74.80
2023-01-10T18:36:34.522Z,73.20
2023-01-10T18:38:38.357Z,73.60
2023-01-10T18:40:42.533Z,73.30
2023-01-10T18:42:45.881Z,72.70
2023-01-10T18:44:50.473Z,73.10
2023-01-10T18:46:53.819Z,73.80
2023-01-10T18:48:57.105Z,73.00
2023-01-10T18:51:01.685Z,74.30
2023-01-10T18:53:05.275Z,73.20
2023-01-10T18:55:09.279Z,72.70
2023-01-10T18:57:12.617Z,73.40
2023-01-10T18:59:15.867Z,72.50
2023-01-10T19:01:23.087Z,71.50
2023-01-10T19:03:26.635Z,72.20
2023-01-10T19:05:30.178Z,73.00
2023-01-10T19:07:33.896Z,72.70
2023-01-10T19:09:37.758Z,72.20
2023-01-10T19:11:41.074Z,73.80
2023-01-10T19:13:45.130Z,73.00
2023-01-10T19:15:48.383Z,73.70
2023-01-10T19:17:53.051Z,73.50
2023-01-10T19:19:56.747Z,73.90
2023-01-10T19:21:59.968Z,73.80
2023-01-10T19:24:05.578Z,73.20
2023-01-10T19:26:09.276Z,73.30
2023-01-10T19:28:12.529Z,73.80
2023-01-10T19:30:16.076Z,73.90
2023-01-10T19:32:22.810Z,73.40
2023-01-10T19:34:27.618Z,74.00
2023-01-10T19:36:34.635Z,74.00
2023-01-10T19:38:38.348Z,73.80
2023-01-10T19:40:41.667Z,73.30
2023-01-10T19:42:44.895Z,73.10
2023-01-10T19:44:48.203Z,73.40
2023-01-10T19:46:51.439Z,73.50
2023-01-10T19:48:57.079Z,73.60
2023-01-10T19:51:07.702Z,74.30
2023-01-10T19:53:10.899Z,74.20
2023-01-10T19:55:14.643Z,74.60
2023-01-10T19:57:17.926Z,75.60
2023-01-10T19:59:21.169Z,78.30
2023-01-10T20:01:26.497Z,84.40
2023-01-10T20:03:30.976Z,85.20
2023-01-10T20:05:36.392Z,84.10
2023-01-10T20:07:41.599Z,84.70
2023-01-10T20:09:44.941Z,84.70
2023-01-10T20:11:48.230Z,83.60
2023-01-10T20:13:52.213Z,83.40
2023-01-10T20:15:55.537Z,82.20
2023-01-10T20:17:58.924Z,82.20
2023-01-10T20:20:02.277Z,84.30
2023-01-10T20:22:05.631Z,83.40
2023-01-10T20:24:18.904Z,82.40
2023-01-10T20:26:26.060Z,81.50
2023-01-10T20:28:29.757Z,81.30
2023-01-10T20:30:32.947Z,81.30
2023-01-10T20:32:36.400Z,80.90
2023-01-10T20:34:40.232Z,78.90
2023-01-10T20:36:43.740Z,83.70
2023-01-10T20:38:47.324Z,85.20
2023-01-10T20:40:52.001Z,85.30
2023-01-10T20:42:55.477Z,84.30
2023-01-10T20:44:58.883Z,87.10
2023-01-10T20:47:02.210Z,88.60
2023-01-10T20:49:05.725Z,90.10
2023-01-10T20:51:12.073Z,90.30
2023-01-10T20:53:15.944Z,90.90
2023-01-10T20:55:20.250Z,91.20
2023-01-10T20:57:24.828Z,91.50
2023-01-10T20:59:29.427Z,91.40
2023-01-10T21:01:35.485Z,92.30
2023-01-10T21:03:39.423Z,93.20
2023-01-10T21:05:42.656Z,93.80
2023-01-10T21:07:45.917Z,94.90
2023-01-10T21:09:49.194Z,96.40
2023-01-10T21:12:04.434Z,97.10
2023-01-10T21:14:15.094Z,98.40
2023-01-10T21:16:20.878Z,99.90
2023-01-10T21:18:26.148Z,99.90
2023-01-10T21:20:30.232Z,99.90
2023-01-10T21:22:34.000Z,99.90
2023-01-10T21:24:37.910Z,99.90
2023-01-10T21:26:41.222Z,99.90
2023-01-10T21:28:47.479Z,99.90
2023-01-10T21:30:54.567Z,99.90
2023-01-10T21:33:01.159Z,99.90
2023-01-10T21:35:04.865Z,99.90
2023-01-10T21:37:10.233Z,99.90
2023-01-10T21:39:13.589Z,99.90
2023-01-10T21:41:40.403Z,99.90
2023-01-10T21:43:46.206Z,99.90
2023-01-10T21:45:51.418Z,99.90
2023-01-10T21:47:55.575Z,99.90
2023-01-10T21:49:59.272Z,99.90
2023-01-10T21:52:02.653Z,99.90
2023-01-10T21:54:06.088Z,99.90
2023-01-10T21:56:09.806Z,99.90
2023-01-10T21:58:13.263Z,99.90
2023-01-10T22:00:17.289Z,99.90
2023-01-10T22:02:23.876Z,99.90
2023-01-10T22:04:27.080Z,99.90
2023-01-10T22:06:30.550Z,99.90
2023-01-10T22:08:33.797Z,99.90
2023-01-10T22:10:37.077Z,99.90
2023-01-10T22:12:40.285Z,99.90
2023-01-10T22:14:43.786Z,99.90
2023-01-10T22:16:47.146Z,99.90
2023-01-10T22:18:51.906Z,99.90
2023-01-10T22:20:56.495Z,99.90
2023-01-10T22:22:59.996Z,99.90
2023-01-10T22:25:03.188Z,99.90
2023-01-10T22:27:06.396Z,99.90
2023-01-10T22:29:09.789Z,99.90
2023-01-10T22:31:13.219Z,99.90
2023-01-10T22:33:16.555Z,99.90
2023-01-10T22:35:21.325Z,99.90
2023-01-10T22:37:24.660Z,99.90
2023-01-10T22:39:31.283Z,99.90
2023-01-10T22:41:34.632Z,99.90
2023-01-10T22:43:38.392Z,99.90
2023-01-10T22:45:42.409Z,99.90
2023-01-10T22:47:48.664Z,99.90
2023-01-10T22:49:55.638Z,99.90
2023-01-10T22:52:00.185Z,99.90
2023-01-10T22:54:04.446Z,99.90
2023-01-10T22:56:10.743Z,99.90
2023-01-10T22:58:14.095Z,99.90
2023-01-10T23:00:18.239Z,99.90
2023-01-10T23:02:21.519Z,99.90
2023-01-10T23:04:25.031Z,99.90
2023-01-10T23:06:28.693Z,99.90
2023-01-10T23:08:33.514Z,99.90
2023-01-10T23:10:38.604Z,99.90
2023-01-10T23:12:41.820Z,99.90
2023-01-10T23:14:45.075Z,99.90
2023-01-10T23:16:48.398Z,99.90
2023-01-10T23:18:52.340Z,99.90
2023-01-10T23:20:56.140Z,99.90
2023-01-10T23:22:59.578Z,99.90
2023-01-10T23:25:04.303Z,99.90
2023-01-10T23:27:07.620Z,99.90
2023-01-10T23:29:11.037Z,99.90
2023-01-10T23:31:16.115Z,99.90
2023-01-10T23:33:20.586Z,99.90
2023-01-10T23:35:23.811Z,99.90
2023-01-10T23:37:27.014Z,99.90
2023-01-10T23:39:30.343Z,99.90
2023-01-10T23:41:35.057Z,99.90
2023-01-10T23:43:38.889Z,99.90
2023-01-10T23:45:43.341Z,99.90
2023-01-10T23:47:46.661Z,99.90
2023-01-10T23:49:50.275Z,99.90
2023-01-10T23:51:53.673Z,99.90
2023-01-10T23:53:57.172Z,99.90
2023-01-10T23:56:06.324Z,99.90
2023-01-10T23:58:11.016Z,99.90
